首页
METAR-TAF:

METAR-TAF

机场 :

霍尼亞拉國際機場

霍尼亚拉, 瓜达尔卡纳尔岛, 所罗门群岛

纬度: 09-25S, 经度: 160-03E, 海拔: 8米

当前天气观测

该预报发布于37分钟前的08:00 UTC
静风
温度 29°C
湿度 84%
气压 1007 hPa
能见度10公里或以上
散云层高于1500英尺
多云层高于30000英尺

METAR: AGGH 130800Z 00000KT 9999 SCT015 BKN300 29/26 Q1007

时间: 19:37 (08:37 UTC)

预报

该预报发布于9小时和27分钟前的23:10 UTC
预报有效从13日的 00点(UTC)到 13日的 24点(UTC)
风速10节,风向北转东北
能见度10公里或以上
少量云层高于1800英尺
多云层高于10000英尺
几率 40%
在之间 IN和TE点(UTC)
能見度: 1008
多云层高于1600英尺
少量云层高于1700英尺, 积雨云.

TAF: AGGH 122310Z 1300/1324 02010KT 9999 FEW018 BKN100 PROB40 INTER 1301/1308 5000 TSSH BKN016 FEW017CB T 31 32 30 28 Q 1009 1007 1006 1008

超过4000个机场的气象观测和天气预报(METAR&TAF报告)。

可查询的气象台以黄色和红色小点在地图上表示。

将鼠标移到小点上方,可查看气象台名称。

然后点击查看天气观测和预报。

如需切换地图:点击带黑十字的绿色按钮放大地图;点击带横线的绿色按钮缩小地图;或者点击绿色箭头查看邻近地区的地图。


METAR-TAF: